ANA917 RKSI-ROAH
Flight info
| Callsign | ANA917 |
|---|---|
| Flight time | 1h 46m |
| Altitude | 38000 |
| Route | BOPTA Z51 BEDES Y711 KIDOS Z81 CJU Y572 RUGMA Y579 ONC Y525 IHEYA |
| Aircraft | B77W/H-SDE1E2E3FGHIJ2J3J4J5M1RWXY/LB1D1 |
Departure
| Time | 2026-04-24 09:36 |
|---|---|
| Airport | Incheon International Airport (RKSI) |
Arrival
| Time | 2026-04-24 11:22 |
|---|---|
| Airport | Naha International Airport (ROAH) |
| Time | Latitude | Longitude | Altitude | Speed | Heading |
|---|---|---|---|---|---|
| 2026-04-24 09:13 | 37.45387 | 126.44274 | 36 ft | 0 kts | 324° |
| 2026-04-24 09:26 | 37.45383 | 126.44278 | 35 ft | 2 kts | 325° |
| 2026-04-24 09:27 | 37.45370 | 126.44289 | 35 ft | 2 kts | 324° |
| 2026-04-24 09:27 | 37.45358 | 126.44299 | 35 ft | 2 kts | 324° |
| 2026-04-24 09:27 | 37.45346 | 126.44310 | 35 ft | 2 kts | 328° |
| 2026-04-24 09:27 | 37.45332 | 126.44316 | 35 ft | 2 kts | 358° |
| 2026-04-24 09:28 | 37.45318 | 126.44314 | 35 ft | 2 kts | 22° |
| 2026-04-24 09:28 | 37.45305 | 126.44304 | 35 ft | 2 kts | 45° |
| 2026-04-24 09:28 | 37.45296 | 126.44290 | 35 ft | 0 kts | 58° |
| 2026-04-24 09:30 | 37.45302 | 126.44301 | 35 ft | 3 kts | 57° |
| 2026-04-24 09:30 | 37.45326 | 126.44345 | 35 ft | 8 kts | 54° |
| 2026-04-24 09:31 | 37.45369 | 126.44420 | 35 ft | 11 kts | 53° |
| 2026-04-24 09:31 | 37.45349 | 126.44496 | 35 ft | 10 kts | 163° |
| 2026-04-24 09:31 | 37.45288 | 126.44449 | 35 ft | 12 kts | 232° |
| 2026-04-24 09:31 | 37.45235 | 126.44357 | 35 ft | 13 kts | 234° |
| 2026-04-24 09:32 | 37.45177 | 126.44253 | 35 ft | 15 kts | 235° |
| 2026-04-24 09:32 | 37.45119 | 126.44147 | 35 ft | 13 kts | 235° |
| 2026-04-24 09:32 | 37.45062 | 126.44048 | 35 ft | 14 kts | 234° |
| 2026-04-24 09:32 | 37.44977 | 126.44021 | 35 ft | 15 kts | 144° |
| 2026-04-24 09:33 | 37.44886 | 126.44106 | 35 ft | 17 kts | 143° |
| 2026-04-24 09:33 | 37.44786 | 126.44196 | 35 ft | 18 kts | 143° |
| 2026-04-24 09:33 | 37.44685 | 126.44289 | 35 ft | 17 kts | 144° |
| 2026-04-24 09:33 | 37.44596 | 126.44368 | 35 ft | 15 kts | 146° |
| 2026-04-24 09:34 | 37.44517 | 126.44409 | 35 ft | 11 kts | 199° |
| 2026-04-24 09:34 | 37.44457 | 126.44350 | 35 ft | 10 kts | 236° |
| 2026-04-24 09:34 | 37.44418 | 126.44273 | 35 ft | 10 kts | 237° |
| 2026-04-24 09:34 | 37.44380 | 126.44202 | 35 ft | 9 kts | 236° |
| 2026-04-24 09:35 | 37.44379 | 126.44141 | 35 ft | 6 kts | 309° |
| 2026-04-24 09:35 | 37.44411 | 126.44109 | 35 ft | 7 kts | 323° |
| 2026-04-24 09:35 | 37.44572 | 126.43962 | 35 ft | 64 kts | 324° |
| 2026-04-24 09:35 | 37.45153 | 126.43448 | 36 ft | 136 kts | 323° |
| 2026-04-24 09:36 | 37.46036 | 126.42642 | 419 ft | 162 kts | 322° |
| 2026-04-24 09:36 | 37.46972 | 126.41824 | 1191 ft | 171 kts | 323° |
| 2026-04-24 09:36 | 37.47897 | 126.40910 | 1975 ft | 174 kts | 306° |
| 2026-04-24 09:36 | 37.48627 | 126.39651 | 2613 ft | 180 kts | 304° |
| 2026-04-24 09:37 | 37.49376 | 126.38408 | 3274 ft | 185 kts | 306° |
| 2026-04-24 09:37 | 37.50102 | 126.36986 | 3703 ft | 202 kts | 289° |
| 2026-04-24 09:37 | 37.50377 | 126.35204 | 4276 ft | 213 kts | 272° |
| 2026-04-24 09:37 | 37.50462 | 126.33257 | 4779 ft | 233 kts | 270° |
| 2026-04-24 09:38 | 37.50520 | 126.31134 | 5271 ft | 255 kts | 270° |
| 2026-04-24 09:38 | 37.50572 | 126.28848 | 5919 ft | 270 kts | 270° |
| 2026-04-24 09:38 | 37.50626 | 126.26463 | 6823 ft | 275 kts | 271° |
| 2026-04-24 09:38 | 37.50683 | 126.24081 | 7722 ft | 280 kts | 272° |
| 2026-04-24 09:39 | 37.50684 | 126.21612 | 8615 ft | 285 kts | 263° |
| 2026-04-24 09:39 | 37.50046 | 126.19276 | 9449 ft | 292 kts | 239° |
| 2026-04-24 09:39 | 37.48643 | 126.17401 | 10273 ft | 300 kts | 218° |
| 2026-04-24 09:39 | 37.46851 | 126.15942 | 10826 ft | 317 kts | 208° |
| 2026-04-24 09:40 | 37.44745 | 126.14813 | 11314 ft | 337 kts | 196° |
| 2026-04-24 09:40 | 37.42395 | 126.14527 | 11826 ft | 353 kts | 172° |
| 2026-04-24 09:40 | 37.40018 | 126.15517 | 12315 ft | 367 kts | 146° |
| 2026-04-24 09:40 | 37.38072 | 126.17625 | 12855 ft | 380 kts | 130° |
| 2026-04-24 09:41 | 37.36308 | 126.20116 | 13745 ft | 387 kts | 128° |
| 2026-04-24 09:41 | 37.34537 | 126.22654 | 14770 ft | 392 kts | 128° |
| 2026-04-24 09:41 | 37.32715 | 126.25266 | 15730 ft | 398 kts | 129° |
| 2026-04-24 09:41 | 37.30889 | 126.27881 | 16715 ft | 404 kts | 129° |
| 2026-04-24 09:42 | 37.29025 | 126.30548 | 17654 ft | 410 kts | 129° |
| 2026-04-24 09:42 | 37.27145 | 126.33236 | 18604 ft | 416 kts | 129° |
| 2026-04-24 09:42 | 37.25226 | 126.35976 | 19551 ft | 421 kts | 129° |
| 2026-04-24 09:42 | 37.23310 | 126.38709 | 20448 ft | 427 kts | 129° |
| 2026-04-24 09:43 | 37.21303 | 126.41460 | 21303 ft | 434 kts | 135° |
| 2026-04-24 09:43 | 37.18946 | 126.43854 | 22136 ft | 441 kts | 144° |
| 2026-04-24 09:43 | 37.16239 | 126.45745 | 22997 ft | 447 kts | 155° |
| 2026-04-24 09:43 | 37.13363 | 126.47183 | 23815 ft | 452 kts | 158° |
| 2026-04-24 09:44 | 37.10381 | 126.48586 | 24620 ft | 458 kts | 158° |
| 2026-04-24 09:44 | 37.07394 | 126.49989 | 25356 ft | 464 kts | 158° |
| 2026-04-24 09:44 | 37.04363 | 126.51362 | 26076 ft | 470 kts | 162° |
| 2026-04-24 09:44 | 37.01186 | 126.52474 | 26839 ft | 475 kts | 164° |
| 2026-04-24 09:45 | 36.97969 | 126.53545 | 27516 ft | 481 kts | 164° |
| 2026-04-24 09:45 | 36.94712 | 126.54623 | 28140 ft | 488 kts | 164° |
| 2026-04-24 09:45 | 36.91405 | 126.55718 | 28806 ft | 493 kts | 164° |
| 2026-04-24 09:45 | 36.88065 | 126.56823 | 29491 ft | 498 kts | 164° |
| 2026-04-24 09:46 | 36.84652 | 126.57951 | 30101 ft | 504 kts | 164° |
| 2026-04-24 09:46 | 36.81251 | 126.59072 | 30655 ft | 509 kts | 164° |
| 2026-04-24 09:46 | 36.77819 | 126.60204 | 31245 ft | 512 kts | 165° |
| 2026-04-24 09:46 | 36.74374 | 126.61339 | 31946 ft | 510 kts | 166° |
| 2026-04-24 09:47 | 36.70966 | 126.62466 | 32752 ft | 504 kts | 166° |
| 2026-04-24 09:47 | 36.67592 | 126.63603 | 33540 ft | 499 kts | 166° |
| 2026-04-24 09:47 | 36.64256 | 126.64728 | 34173 ft | 496 kts | 167° |
| 2026-04-24 09:47 | 36.60928 | 126.65846 | 34694 ft | 496 kts | 168° |
| 2026-04-24 09:48 | 36.57554 | 126.66979 | 35171 ft | 496 kts | 169° |
| 2026-04-24 09:48 | 36.54243 | 126.68089 | 35650 ft | 494 kts | 169° |
| 2026-04-24 09:48 | 36.50932 | 126.69199 | 36235 ft | 492 kts | 170° |
| 2026-04-24 09:48 | 36.47684 | 126.70287 | 36855 ft | 488 kts | 170° |
| 2026-04-24 09:49 | 36.44363 | 126.71397 | 37366 ft | 487 kts | 171° |
| 2026-04-24 09:49 | 36.41092 | 126.72489 | 37835 ft | 486 kts | 171° |
| 2026-04-24 09:49 | 36.37814 | 126.73582 | 38035 ft | 488 kts | 171° |
| 2026-04-24 09:49 | 36.34553 | 126.74681 | 38051 ft | 487 kts | 171° |
| 2026-04-24 09:50 | 36.28004 | 126.76893 | 38054 ft | 485 kts | 172° |
| 2026-04-24 09:50 | 36.21475 | 126.79092 | 38047 ft | 484 kts | 172° |
| 2026-04-24 09:51 | 36.14937 | 126.80783 | 38046 ft | 477 kts | 183° |
| 2026-04-24 09:51 | 36.08365 | 126.80489 | 38040 ft | 469 kts | 192° |
| 2026-04-24 09:52 | 36.01916 | 126.79792 | 38048 ft | 465 kts | 192° |
| 2026-04-24 09:52 | 35.95479 | 126.79093 | 38049 ft | 463 kts | 192° |
| 2026-04-24 09:53 | 35.89052 | 126.78396 | 38048 ft | 464 kts | 192° |
| 2026-04-24 09:53 | 35.82584 | 126.77696 | 38046 ft | 463 kts | 192° |
| 2026-04-24 09:54 | 35.76189 | 126.77005 | 38055 ft | 462 kts | 192° |
| 2026-04-24 09:54 | 35.69729 | 126.76307 | 38048 ft | 464 kts | 192° |
| 2026-04-24 09:55 | 35.63319 | 126.75617 | 38077 ft | 461 kts | 192° |
| 2026-04-24 09:55 | 35.56907 | 126.74927 | 38089 ft | 462 kts | 192° |
| 2026-04-24 09:56 | 35.50506 | 126.74240 | 38058 ft | 461 kts | 193° |
| 2026-04-24 09:56 | 35.44133 | 126.73556 | 38060 ft | 459 kts | 193° |
| 2026-04-24 09:57 | 35.37754 | 126.72874 | 38057 ft | 460 kts | 193° |
| 2026-04-24 09:57 | 35.31384 | 126.72192 | 38056 ft | 461 kts | 192° |
| 2026-04-24 09:58 | 35.24987 | 126.71510 | 38070 ft | 459 kts | 193° |
| 2026-04-24 09:58 | 35.18574 | 126.70825 | 38060 ft | 461 kts | 193° |
| 2026-04-24 09:59 | 35.12189 | 126.70146 | 38063 ft | 461 kts | 193° |
| 2026-04-24 09:59 | 35.05806 | 126.69469 | 38053 ft | 459 kts | 193° |
| 2026-04-24 10:00 | 34.99435 | 126.68793 | 38064 ft | 460 kts | 193° |
| 2026-04-24 10:00 | 34.93070 | 126.68121 | 38072 ft | 456 kts | 193° |
| 2026-04-24 10:01 | 34.86745 | 126.67451 | 38071 ft | 456 kts | 193° |
| 2026-04-24 10:01 | 34.80387 | 126.66779 | 38082 ft | 456 kts | 193° |
| 2026-04-24 10:02 | 34.74052 | 126.66112 | 38085 ft | 457 kts | 193° |
| 2026-04-24 10:02 | 34.67738 | 126.65447 | 38080 ft | 455 kts | 194° |
| 2026-04-24 10:03 | 34.61422 | 126.64783 | 38078 ft | 455 kts | 193° |
| 2026-04-24 10:03 | 34.55117 | 126.64122 | 38073 ft | 454 kts | 194° |
| 2026-04-24 10:04 | 34.48831 | 126.63463 | 38072 ft | 453 kts | 194° |
| 2026-04-24 10:04 | 34.42545 | 126.62805 | 38066 ft | 452 kts | 194° |
| 2026-04-24 10:05 | 34.36273 | 126.62149 | 38072 ft | 453 kts | 194° |
| 2026-04-24 10:05 | 34.29980 | 126.61491 | 38078 ft | 454 kts | 194° |
| 2026-04-24 10:06 | 34.20574 | 126.60510 | 38080 ft | 451 kts | 194° |
| 2026-04-24 10:07 | 34.14330 | 126.59859 | 38077 ft | 451 kts | 194° |
| 2026-04-24 10:07 | 34.08036 | 126.59203 | 38081 ft | 452 kts | 194° |
| 2026-04-24 10:08 | 34.01807 | 126.58557 | 38080 ft | 450 kts | 194° |
| 2026-04-24 10:08 | 33.95569 | 126.57910 | 38081 ft | 448 kts | 194° |
| 2026-04-24 10:09 | 33.89352 | 126.57264 | 38083 ft | 451 kts | 194° |
| 2026-04-24 10:09 | 33.83094 | 126.56883 | 38081 ft | 457 kts | 186° |
| 2026-04-24 10:10 | 33.76719 | 126.57631 | 38074 ft | 461 kts | 184° |
| 2026-04-24 10:10 | 33.70300 | 126.58440 | 38079 ft | 462 kts | 185° |
| 2026-04-24 10:11 | 33.63869 | 126.59246 | 38063 ft | 464 kts | 185° |
| 2026-04-24 10:11 | 33.57449 | 126.60049 | 38073 ft | 462 kts | 185° |
| 2026-04-24 10:12 | 33.51089 | 126.60844 | 38063 ft | 461 kts | 185° |
| 2026-04-24 10:12 | 33.44721 | 126.61636 | 38065 ft | 458 kts | 185° |
| 2026-04-24 10:13 | 33.38346 | 126.62586 | 38055 ft | 469 kts | 178° |
| 2026-04-24 10:13 | 33.32048 | 126.64877 | 38058 ft | 477 kts | 173° |
| 2026-04-24 10:14 | 33.25634 | 126.67378 | 38044 ft | 482 kts | 173° |
| 2026-04-24 10:14 | 33.19265 | 126.69859 | 38053 ft | 480 kts | 173° |
| 2026-04-24 10:15 | 33.12929 | 126.72317 | 38042 ft | 479 kts | 174° |
| 2026-04-24 10:15 | 33.06563 | 126.74779 | 38041 ft | 479 kts | 174° |
| 2026-04-24 10:16 | 33.00167 | 126.77248 | 38040 ft | 481 kts | 174° |
| 2026-04-24 10:16 | 32.93824 | 126.79707 | 38041 ft | 481 kts | 174° |
| 2026-04-24 10:17 | 32.87468 | 126.82167 | 38045 ft | 482 kts | 174° |
| 2026-04-24 10:17 | 32.81056 | 126.84646 | 38046 ft | 480 kts | 174° |
| 2026-04-24 10:18 | 32.74715 | 126.87094 | 38039 ft | 479 kts | 174° |
| 2026-04-24 10:18 | 32.68405 | 126.89526 | 38040 ft | 478 kts | 175° |
| 2026-04-24 10:19 | 32.62041 | 126.91971 | 38038 ft | 481 kts | 175° |
| 2026-04-24 10:19 | 32.55706 | 126.94409 | 38034 ft | 475 kts | 175° |
| 2026-04-24 10:20 | 32.49339 | 126.96841 | 38025 ft | 479 kts | 176° |
| 2026-04-24 10:20 | 32.42973 | 126.98991 | 38032 ft | 476 kts | 178° |
| 2026-04-24 10:21 | 32.36603 | 127.01112 | 38029 ft | 470 kts | 178° |
| 2026-04-24 10:21 | 32.30290 | 127.03214 | 38019 ft | 472 kts | 178° |
| 2026-04-24 10:22 | 32.23956 | 127.05336 | 38017 ft | 469 kts | 178° |
| 2026-04-24 10:22 | 32.17626 | 127.07458 | 38028 ft | 474 kts | 178° |
| 2026-04-24 10:23 | 32.11311 | 127.09583 | 38041 ft | 471 kts | 179° |
| 2026-04-24 10:23 | 32.04975 | 127.11706 | 38044 ft | 471 kts | 179° |
| 2026-04-24 10:24 | 31.98689 | 127.13811 | 38045 ft | 470 kts | 179° |
| 2026-04-24 10:24 | 31.92407 | 127.15912 | 38036 ft | 466 kts | 179° |
| 2026-04-24 10:25 | 31.86076 | 127.18018 | 38047 ft | 472 kts | 179° |
| 2026-04-24 10:25 | 31.79807 | 127.20113 | 38039 ft | 466 kts | 179° |
| 2026-04-24 10:26 | 31.73534 | 127.22197 | 38040 ft | 468 kts | 179° |
| 2026-04-24 10:26 | 31.67276 | 127.24274 | 38035 ft | 468 kts | 179° |
| 2026-04-24 10:27 | 31.61060 | 127.26341 | 38032 ft | 466 kts | 180° |
| 2026-04-24 10:27 | 31.54769 | 127.28421 | 38029 ft | 468 kts | 179° |
| 2026-04-24 10:28 | 31.48566 | 127.30482 | 38021 ft | 459 kts | 180° |
| 2026-04-24 10:28 | 31.42413 | 127.32510 | 38029 ft | 463 kts | 180° |
| 2026-04-24 10:29 | 31.36152 | 127.34572 | 38011 ft | 464 kts | 180° |
| 2026-04-24 10:29 | 31.29971 | 127.36610 | 38018 ft | 464 kts | 180° |
| 2026-04-24 10:30 | 31.23821 | 127.38642 | 38013 ft | 456 kts | 180° |
| 2026-04-24 10:30 | 31.17646 | 127.40691 | 38014 ft | 462 kts | 179° |
| 2026-04-24 10:31 | 31.11501 | 127.42736 | 38011 ft | 463 kts | 180° |
| 2026-04-24 10:31 | 31.05315 | 127.44794 | 38008 ft | 460 kts | 180° |
| 2026-04-24 10:32 | 30.99109 | 127.46848 | 38000 ft | 462 kts | 179° |
| 2026-04-24 10:32 | 30.92998 | 127.48880 | 38008 ft | 456 kts | 180° |
| 2026-04-24 10:33 | 30.86836 | 127.50909 | 38014 ft | 462 kts | 180° |
| 2026-04-24 10:33 | 30.80602 | 127.52969 | 38022 ft | 461 kts | 180° |
| 2026-04-24 10:34 | 30.74448 | 127.54999 | 38020 ft | 461 kts | 180° |
| 2026-04-24 10:34 | 30.68273 | 127.57034 | 38023 ft | 460 kts | 180° |
| 2026-04-24 10:35 | 30.62126 | 127.59059 | 38025 ft | 457 kts | 180° |
| 2026-04-24 10:35 | 30.55990 | 127.61075 | 38027 ft | 456 kts | 180° |
| 2026-04-24 10:36 | 30.49860 | 127.63080 | 38014 ft | 459 kts | 179° |
| 2026-04-24 10:36 | 30.43725 | 127.65092 | 38019 ft | 459 kts | 180° |
| 2026-04-24 10:37 | 30.37598 | 127.67100 | 37985 ft | 454 kts | 180° |
| 2026-04-24 10:37 | 30.31487 | 127.69091 | 37984 ft | 460 kts | 180° |
| 2026-04-24 10:38 | 30.25332 | 127.71104 | 37988 ft | 458 kts | 180° |
| 2026-04-24 10:38 | 30.19171 | 127.73109 | 37983 ft | 460 kts | 180° |
| 2026-04-24 10:39 | 30.12967 | 127.75127 | 37981 ft | 461 kts | 180° |
| 2026-04-24 10:39 | 30.06813 | 127.77132 | 37980 ft | 458 kts | 180° |
| 2026-04-24 10:40 | 30.00643 | 127.79131 | 37981 ft | 462 kts | 180° |
| 2026-04-24 10:40 | 29.94499 | 127.81129 | 37974 ft | 455 kts | 180° |
| 2026-04-24 10:41 | 29.88380 | 127.83106 | 37985 ft | 459 kts | 180° |
| 2026-04-24 10:41 | 29.82267 | 127.85256 | 37990 ft | 460 kts | 177° |
| 2026-04-24 10:42 | 29.76134 | 127.87620 | 37987 ft | 465 kts | 177° |
| 2026-04-24 10:42 | 29.69994 | 127.89977 | 37985 ft | 463 kts | 177° |
| 2026-04-24 10:43 | 29.63844 | 127.92320 | 37989 ft | 468 kts | 177° |
| 2026-04-24 10:43 | 29.57664 | 127.94673 | 37983 ft | 464 kts | 176° |
| 2026-04-24 10:44 | 29.51503 | 127.97007 | 37987 ft | 468 kts | 177° |
| 2026-04-24 10:44 | 29.45324 | 127.99343 | 37988 ft | 472 kts | 177° |
| 2026-04-24 10:45 | 29.39069 | 128.01709 | 37980 ft | 469 kts | 176° |
| 2026-04-24 10:45 | 29.32832 | 128.04057 | 37986 ft | 476 kts | 176° |
| 2026-04-24 10:46 | 29.26547 | 128.06430 | 37990 ft | 473 kts | 176° |
| 2026-04-24 10:46 | 29.20326 | 128.08771 | 37985 ft | 471 kts | 176° |
| 2026-04-24 10:47 | 29.14121 | 128.11104 | 37986 ft | 471 kts | 176° |
| 2026-04-24 10:47 | 29.07883 | 128.13441 | 37979 ft | 475 kts | 176° |
| 2026-04-24 10:48 | 29.01587 | 128.15801 | 37982 ft | 473 kts | 176° |
| 2026-04-24 10:48 | 28.95344 | 128.17975 | 37984 ft | 473 kts | 177° |
| 2026-04-24 10:49 | 28.88993 | 128.20160 | 37983 ft | 479 kts | 177° |
| 2026-04-24 10:49 | 28.82597 | 128.22371 | 37984 ft | 475 kts | 176° |
| 2026-04-24 10:50 | 28.76316 | 128.24542 | 37978 ft | 474 kts | 177° |
| 2026-04-24 10:50 | 28.69978 | 128.26727 | 37993 ft | 475 kts | 176° |
| 2026-04-24 10:51 | 28.63646 | 128.28914 | 37983 ft | 468 kts | 176° |
| 2026-04-24 10:51 | 28.57396 | 128.31062 | 37981 ft | 474 kts | 176° |
| 2026-04-24 10:52 | 28.51086 | 128.33235 | 37985 ft | 469 kts | 176° |
| 2026-04-24 10:52 | 28.44819 | 128.35384 | 37987 ft | 475 kts | 176° |
| 2026-04-24 10:53 | 28.38494 | 128.37555 | 37987 ft | 476 kts | 175° |
| 2026-04-24 10:53 | 28.32109 | 128.39745 | 37992 ft | 476 kts | 176° |
| 2026-04-24 10:54 | 28.25788 | 128.41910 | 37983 ft | 475 kts | 175° |
| 2026-04-24 10:54 | 28.19434 | 128.44081 | 37989 ft | 476 kts | 175° |
| 2026-04-24 10:55 | 28.13099 | 128.46245 | 37985 ft | 474 kts | 175° |
| 2026-04-24 10:55 | 28.06747 | 128.47823 | 37987 ft | 460 kts | 187° |
| 2026-04-24 10:56 | 28.00526 | 128.47369 | 37973 ft | 435 kts | 202° |
| 2026-04-24 10:56 | 27.97629 | 128.46442 | 37973 ft | 422 kts | 209° |
| 2026-04-24 10:56 | 27.94901 | 128.45316 | 37979 ft | 419 kts | 210° |
| 2026-04-24 10:57 | 27.89429 | 128.43019 | 37988 ft | 419 kts | 210° |
| 2026-04-24 10:57 | 27.84000 | 128.40747 | 37766 ft | 411 kts | 210° |
| 2026-04-24 10:57 | 27.81319 | 128.39624 | 36898 ft | 413 kts | 210° |
| 2026-04-24 10:58 | 27.78602 | 128.38486 | 36215 ft | 411 kts | 209° |
| 2026-04-24 10:58 | 27.75918 | 128.37364 | 35560 ft | 409 kts | 209° |
| 2026-04-24 10:58 | 27.73272 | 128.36258 | 34871 ft | 408 kts | 209° |
| 2026-04-24 10:58 | 27.70603 | 128.35143 | 34422 ft | 408 kts | 209° |
| 2026-04-24 10:59 | 27.67931 | 128.34019 | 34434 ft | 420 kts | 208° |
| 2026-04-24 10:59 | 27.65130 | 128.32843 | 34086 ft | 433 kts | 208° |
| 2026-04-24 10:59 | 27.62300 | 128.31659 | 33269 ft | 437 kts | 208° |
| 2026-04-24 10:59 | 27.59420 | 128.30456 | 32346 ft | 439 kts | 208° |
| 2026-04-24 11:00 | 27.56586 | 128.29275 | 31440 ft | 440 kts | 207° |
| 2026-04-24 11:00 | 27.53685 | 128.28065 | 30567 ft | 440 kts | 207° |
| 2026-04-24 11:00 | 27.50859 | 128.26892 | 30098 ft | 432 kts | 207° |
| 2026-04-24 11:00 | 27.48054 | 128.25729 | 29600 ft | 424 kts | 207° |
| 2026-04-24 11:01 | 27.45325 | 128.24596 | 29063 ft | 419 kts | 207° |
| 2026-04-24 11:01 | 27.42577 | 128.23456 | 28523 ft | 413 kts | 207° |
| 2026-04-24 11:01 | 27.39928 | 128.22357 | 27989 ft | 409 kts | 207° |
| 2026-04-24 11:01 | 27.37231 | 128.21234 | 27434 ft | 417 kts | 207° |
| 2026-04-24 11:02 | 27.34465 | 128.20084 | 26854 ft | 423 kts | 207° |
| 2026-04-24 11:02 | 27.31725 | 128.18947 | 26262 ft | 421 kts | 206° |
| 2026-04-24 11:02 | 27.28983 | 128.17810 | 25674 ft | 418 kts | 206° |
| 2026-04-24 11:02 | 27.26263 | 128.16684 | 25089 ft | 414 kts | 206° |
| 2026-04-24 11:03 | 27.23576 | 128.15572 | 24498 ft | 411 kts | 206° |
| 2026-04-24 11:03 | 27.20920 | 128.14473 | 23917 ft | 408 kts | 206° |
| 2026-04-24 11:03 | 27.18263 | 128.13373 | 23345 ft | 406 kts | 205° |
| 2026-04-24 11:03 | 27.15620 | 128.12195 | 22741 ft | 403 kts | 205° |
| 2026-04-24 11:04 | 27.12905 | 128.11391 | 22193 ft | 406 kts | 195° |
| 2026-04-24 11:04 | 27.10141 | 128.10924 | 21750 ft | 401 kts | 194° |
| 2026-04-24 11:04 | 27.07386 | 128.10489 | 21181 ft | 399 kts | 194° |
| 2026-04-24 11:04 | 27.04635 | 128.10048 | 20527 ft | 398 kts | 194° |
| 2026-04-24 11:05 | 27.01890 | 128.09602 | 20049 ft | 397 kts | 194° |
| 2026-04-24 11:05 | 26.99141 | 128.09154 | 19583 ft | 400 kts | 194° |
| 2026-04-24 11:05 | 26.96405 | 128.08697 | 19116 ft | 399 kts | 194° |
| 2026-04-24 11:05 | 26.93674 | 128.08235 | 18653 ft | 398 kts | 194° |
| 2026-04-24 11:06 | 26.90923 | 128.07773 | 18212 ft | 397 kts | 194° |
| 2026-04-24 11:06 | 26.88213 | 128.07314 | 17795 ft | 394 kts | 194° |
| 2026-04-24 11:06 | 26.85474 | 128.06847 | 17380 ft | 394 kts | 194° |
| 2026-04-24 11:06 | 26.82797 | 128.06390 | 16953 ft | 393 kts | 194° |
| 2026-04-24 11:07 | 26.77408 | 128.05453 | 16019 ft | 388 kts | 194° |
| 2026-04-24 11:07 | 26.74760 | 128.04984 | 15554 ft | 384 kts | 194° |
| 2026-04-24 11:07 | 26.72114 | 128.04509 | 15085 ft | 382 kts | 194° |
| 2026-04-24 11:08 | 26.69496 | 128.04039 | 14614 ft | 379 kts | 194° |
| 2026-04-24 11:08 | 26.66900 | 128.03571 | 14145 ft | 378 kts | 194° |
| 2026-04-24 11:08 | 26.64279 | 128.03088 | 13667 ft | 376 kts | 194° |
| 2026-04-24 11:08 | 26.61720 | 128.02617 | 13198 ft | 374 kts | 194° |
| 2026-04-24 11:09 | 26.59173 | 128.02151 | 12730 ft | 370 kts | 194° |
| 2026-04-24 11:09 | 26.56651 | 128.01691 | 12261 ft | 365 kts | 194° |
| 2026-04-24 11:09 | 26.54152 | 128.01231 | 11788 ft | 361 kts | 194° |
| 2026-04-24 11:09 | 26.51673 | 128.00784 | 11315 ft | 357 kts | 194° |
| 2026-04-24 11:10 | 26.49231 | 128.00348 | 11043 ft | 347 kts | 194° |
| 2026-04-24 11:10 | 26.46897 | 127.99938 | 11021 ft | 330 kts | 194° |
| 2026-04-24 11:10 | 26.44681 | 127.99562 | 11021 ft | 314 kts | 194° |
| 2026-04-24 11:10 | 26.42578 | 127.99213 | 10995 ft | 299 kts | 194° |
| 2026-04-24 11:11 | 26.40560 | 127.98887 | 10962 ft | 285 kts | 194° |
| 2026-04-24 11:11 | 26.38639 | 127.98583 | 10812 ft | 277 kts | 194° |
| 2026-04-24 11:11 | 26.36737 | 127.98286 | 10541 ft | 273 kts | 194° |
| 2026-04-24 11:11 | 26.34841 | 127.97989 | 10181 ft | 274 kts | 194° |
| 2026-04-24 11:12 | 26.32949 | 127.97694 | 9856 ft | 273 kts | 194° |
| 2026-04-24 11:12 | 26.31078 | 127.97404 | 9526 ft | 272 kts | 194° |
| 2026-04-24 11:12 | 26.29197 | 127.97113 | 9197 ft | 271 kts | 194° |
| 2026-04-24 11:12 | 26.27450 | 127.96514 | 8815 ft | 261 kts | 216° |
| 2026-04-24 11:13 | 26.26034 | 127.95302 | 8486 ft | 255 kts | 226° |
| 2026-04-24 11:13 | 26.24704 | 127.93994 | 8181 ft | 253 kts | 226° |
| 2026-04-24 11:13 | 26.23391 | 127.92698 | 7870 ft | 252 kts | 226° |
| 2026-04-24 11:13 | 26.22076 | 127.91400 | 7553 ft | 251 kts | 226° |
| 2026-04-24 11:14 | 26.20762 | 127.90103 | 7225 ft | 251 kts | 226° |
| 2026-04-24 11:14 | 26.19464 | 127.88822 | 6932 ft | 250 kts | 226° |
| 2026-04-24 11:14 | 26.18166 | 127.87542 | 6602 ft | 250 kts | 226° |
| 2026-04-24 11:14 | 26.16877 | 127.86272 | 6320 ft | 248 kts | 226° |
| 2026-04-24 11:15 | 26.15579 | 127.84992 | 6009 ft | 247 kts | 226° |
| 2026-04-24 11:15 | 26.14295 | 127.83726 | 5675 ft | 248 kts | 226° |
| 2026-04-24 11:15 | 26.12997 | 127.82447 | 5333 ft | 249 kts | 226° |
| 2026-04-24 11:15 | 26.11693 | 127.81162 | 4996 ft | 250 kts | 225° |
| 2026-04-24 11:16 | 26.10390 | 127.79878 | 4634 ft | 252 kts | 225° |
| 2026-04-24 11:16 | 26.09071 | 127.78580 | 4320 ft | 253 kts | 225° |
| 2026-04-24 11:16 | 26.07747 | 127.77277 | 3991 ft | 254 kts | 225° |
| 2026-04-24 11:16 | 26.06428 | 127.75976 | 3656 ft | 255 kts | 226° |
| 2026-04-24 11:17 | 26.05409 | 127.74402 | 3219 ft | 253 kts | 253° |
| 2026-04-24 11:17 | 26.05061 | 127.72500 | 2817 ft | 246 kts | 268° |
| 2026-04-24 11:17 | 26.04954 | 127.70686 | 2461 ft | 228 kts | 271° |
| 2026-04-24 11:17 | 26.04889 | 127.68976 | 2129 ft | 217 kts | 271° |
| 2026-04-24 11:18 | 26.04828 | 127.67372 | 2033 ft | 197 kts | 271° |
| 2026-04-24 11:18 | 26.04918 | 127.65926 | 2021 ft | 180 kts | 291° |
| 2026-04-24 11:18 | 26.05552 | 127.64793 | 2008 ft | 169 kts | 319° |
| 2026-04-24 11:18 | 26.06561 | 127.64152 | 2014 ft | 165 kts | 345° |
| 2026-04-24 11:19 | 26.07655 | 127.63863 | 2002 ft | 159 kts | 347° |
| 2026-04-24 11:19 | 26.08740 | 127.63759 | 1793 ft | 150 kts | 359° |
| 2026-04-24 11:19 | 26.09748 | 127.63741 | 1604 ft | 141 kts | 356° |
| 2026-04-24 11:19 | 26.10723 | 127.63689 | 1429 ft | 138 kts | 357° |
| 2026-04-24 11:20 | 26.11690 | 127.63645 | 1247 ft | 138 kts | 357° |
| 2026-04-24 11:20 | 26.12651 | 127.63600 | 1064 ft | 137 kts | 357° |
| 2026-04-24 11:20 | 26.13351 | 127.63567 | 928 ft | 137 kts | 357° |
| 2026-04-24 11:20 | 26.14297 | 127.63522 | 744 ft | 137 kts | 357° |
| 2026-04-24 11:21 | 26.15257 | 127.63478 | 562 ft | 137 kts | 357° |
| 2026-04-24 11:21 | 26.16222 | 127.63432 | 372 ft | 137 kts | 357° |
| 2026-04-24 11:21 | 26.17172 | 127.63383 | 191 ft | 137 kts | 358° |
| 2026-04-24 11:21 | 26.18129 | 127.63340 | 41 ft | 136 kts | 358° |
| 2026-04-24 11:22 | 26.18976 | 127.63307 | 29 ft | 99 kts | 357° |
| 2026-04-24 11:22 | 26.19562 | 127.63275 | 29 ft | 71 kts | 358° |
| 2026-04-24 11:22 | 26.19977 | 127.63257 | 29 ft | 44 kts | 358° |
| 2026-04-24 11:22 | 26.20214 | 127.63247 | 29 ft | 20 kts | 358° |
| 2026-04-24 11:23 | 26.20292 | 127.63322 | 29 ft | 16 kts | 83° |
| 2026-04-24 11:23 | 26.20296 | 127.63448 | 29 ft | 17 kts | 88° |
| 2026-04-24 11:23 | 26.20305 | 127.63596 | 29 ft | 20 kts | 86° |
| 2026-04-24 11:23 | 26.20312 | 127.63773 | 29 ft | 24 kts | 87° |
| 2026-04-24 11:24 | 26.20321 | 127.63969 | 30 ft | 27 kts | 90° |
| 2026-04-24 11:24 | 26.20326 | 127.64174 | 30 ft | 23 kts | 88° |
| 2026-04-24 11:24 | 26.20369 | 127.64310 | 30 ft | 17 kts | 15° |
| 2026-04-24 11:24 | 26.20490 | 127.64318 | 30 ft | 16 kts | 359° |
| 2026-04-24 11:25 | 26.20609 | 127.64326 | 30 ft | 17 kts | 11° |
| 2026-04-24 11:25 | 26.20724 | 127.64352 | 30 ft | 16 kts | 12° |
| 2026-04-24 11:25 | 26.20827 | 127.64378 | 30 ft | 13 kts | 12° |
| 2026-04-24 11:25 | 26.20835 | 127.64379 | 30 ft | 0 kts | 12° |
| 2026-04-24 11:27 | 26.20845 | 127.64381 | 30 ft | 4 kts | 12° |
| 2026-04-24 11:27 | 26.20889 | 127.64408 | 30 ft | 10 kts | 39° |
| 2026-04-24 11:27 | 26.20913 | 127.64500 | 30 ft | 16 kts | 102° |
| 2026-04-24 11:28 | 26.20897 | 127.64642 | 30 ft | 19 kts | 86° |
| 2026-04-24 11:28 | 26.20908 | 127.64786 | 30 ft | 18 kts | 84° |
| 2026-04-24 11:28 | 26.20934 | 127.64881 | 30 ft | 4 kts | 39° |
| 2026-04-24 11:28 | 26.20970 | 127.64886 | 30 ft | 5 kts | 358° |
| 2026-04-24 11:29 | 26.20993 | 127.64889 | 30 ft | 1 kts | 38° |
| 2026-04-24 11:29 | 26.21002 | 127.64908 | 30 ft | 2 kts | 79° |
| 2026-04-24 11:29 | 26.21003 | 127.64928 | 30 ft | 2 kts | 88° |
| 2026-04-24 11:29 | 26.21004 | 127.64954 | 30 ft | 3 kts | 88° |
| 2026-04-24 11:30 | 26.21004 | 127.64966 | 30 ft | 0 kts | 88° |
| 2026-04-24 11:31 | 26.21004 | 127.64944 | 30 ft | 3 kts | 88° |
| 2026-04-24 11:31 | 26.21003 | 127.64936 | 30 ft | 0 kts | 88° |